sensor_id;sensor_type;location;lat;lon;timestamp;P1;durP1;ratioP1;P2;durP2;ratioP2
60582;SDS011;46415;47.536;19.066;2022-10-16T00:00:30;9.20;;;5.57;;
60582;SDS011;46415;47.536;19.066;2022-10-16T00:03:33;8.18;;;5.85;;
60582;SDS011;46415;47.536;19.066;2022-10-16T00:06:36;6.22;;;5.35;;
60582;SDS011;46415;47.536;19.066;2022-10-16T00:09:39;5.55;;;4.85;;
60582;SDS011;46415;47.536;19.066;2022-10-16T00:12:41;6.22;;;5.50;;
60582;SDS011;46415;47.536;19.066;2022-10-16T00:15:44;6.45;;;5.47;;
60582;SDS011;46415;47.536;19.066;2022-10-16T00:18:48;6.68;;;5.20;;
60582;SDS011;46415;47.536;19.066;2022-10-16T00:21:51;5.78;;;5.00;;
60582;SDS011;46415;47.536;19.066;2022-10-16T00:24:53;6.07;;;4.43;;
60582;SDS011;46415;47.536;19.066;2022-10-16T00:27:56;5.68;;;5.00;;
60582;SDS011;46415;47.536;19.066;2022-10-16T00:30:59;7.05;;;5.25;;
60582;SDS011;46415;47.536;19.066;2022-10-16T00:34:04;5.93;;;5.07;;
60582;SDS011;46415;47.536;19.066;2022-10-16T00:37:07;5.28;;;4.78;;
60582;SDS011;46415;47.536;19.066;2022-10-16T00:40:09;5.65;;;5.05;;
60582;SDS011;46415;47.536;19.066;2022-10-16T00:43:35;6.37;;;4.68;;
60582;SDS011;46415;47.536;19.066;2022-10-16T00:46:52;6.37;;;5.37;;
60582;SDS011;46415;47.536;19.066;2022-10-16T00:53:28;6.82;;;5.05;;
60582;SDS011;46415;47.536;19.066;2022-10-16T00:56:31;6.53;;;5.30;;
60582;SDS011;46415;47.536;19.066;2022-10-16T00:59:37;5.57;;;5.07;;
60582;SDS011;46415;47.536;19.066;2022-10-16T01:02:41;6.50;;;5.07;;
60582;SDS011;46415;47.536;19.066;2022-10-16T01:05:45;5.75;;;4.80;;
60582;SDS011;46415;47.536;19.066;2022-10-16T01:12:26;6.70;;;5.40;;
60582;SDS011;46415;47.536;19.066;2022-10-16T01:15:54;7.97;;;5.20;;
60582;SDS011;46415;47.536;19.066;2022-10-16T01:19:36;6.25;;;4.80;;
60582;SDS011;46415;47.536;19.066;2022-10-16T01:23:05;5.47;;;4.67;;
60582;SDS011;46415;47.536;19.066;2022-10-16T01:26:23;6.68;;;4.93;;
60582;SDS011;46415;47.536;19.066;2022-10-16T01:33:17;7.43;;;5.22;;
60582;SDS011;46415;47.536;19.066;2022-10-16T01:36:24;6.37;;;5.12;;
60582;SDS011;46415;47.536;19.066;2022-10-16T01:42:37;5.95;;;5.07;;
60582;SDS011;46415;47.536;19.066;2022-10-16T01:45:44;8.10;;;4.90;;
60582;SDS011;46415;47.536;19.066;2022-10-16T01:48:47;5.78;;;4.40;;
60582;SDS011;46415;47.536;19.066;2022-10-16T01:51:54;6.82;;;5.20;;
60582;SDS011;46415;47.536;19.066;2022-10-16T01:54:59;5.22;;;4.72;;
60582;SDS011;46415;47.536;19.066;2022-10-16T01:58:05;5.55;;;4.70;;
60582;SDS011;46415;47.536;19.066;2022-10-16T02:01:11;5.80;;;4.90;;
60582;SDS011;46415;47.536;19.066;2022-10-16T02:04:24;6.28;;;4.80;;
60582;SDS011;46415;47.536;19.066;2022-10-16T02:07:31;6.35;;;5.32;;
60582;SDS011;46415;47.536;19.066;2022-10-16T02:10:34;6.15;;;3.95;;
60582;SDS011;46415;47.536;19.066;2022-10-16T02:13:55;6.20;;;5.22;;
60582;SDS011;46415;47.536;19.066;2022-10-16T02:17:14;4.20;;;3.47;;
60582;SDS011;46415;47.536;19.066;2022-10-16T02:20:19;7.87;;;4.87;;
60582;SDS011;46415;47.536;19.066;2022-10-16T02:30:38;4.90;;;3.83;;
60582;SDS011;46415;47.536;19.066;2022-10-16T02:33:50;6.65;;;5.37;;
60582;SDS011;46415;47.536;19.066;2022-10-16T02:36:54;6.35;;;4.40;;
60582;SDS011;46415;47.536;19.066;2022-10-16T02:39:58;5.93;;;4.60;;
60582;SDS011;46415;47.536;19.066;2022-10-16T02:43:03;4.60;;;4.00;;
60582;SDS011;46415;47.536;19.066;2022-10-16T02:46:06;6.68;;;4.32;;
60582;SDS011;46415;47.536;19.066;2022-10-16T02:49:09;4.18;;;3.78;;
60582;SDS011;46415;47.536;19.066;2022-10-16T02:52:12;5.72;;;4.87;;
60582;SDS011;46415;47.536;19.066;2022-10-16T02:55:14;5.75;;;4.75;;
60582;SDS011;46415;47.536;19.066;2022-10-16T02:58:17;4.60;;;3.83;;
60582;SDS011;46415;47.536;19.066;2022-10-16T03:01:20;5.00;;;4.32;;
60582;SDS011;46415;47.536;19.066;2022-10-16T03:04:22;6.43;;;5.35;;
60582;SDS011;46415;47.536;19.066;2022-10-16T03:07:25;8.77;;;5.37;;
60582;SDS011;46415;47.536;19.066;2022-10-16T03:10:28;6.12;;;4.05;;
60582;SDS011;46415;47.536;19.066;2022-10-16T03:13:31;8.70;;;5.97;;
60582;SDS011;46415;47.536;19.066;2022-10-16T03:16:33;9.77;;;3.90;;
60582;SDS011;46415;47.536;19.066;2022-10-16T03:19:36;7.85;;;5.20;;
60582;SDS011;46415;47.536;19.066;2022-10-16T03:22:38;11.02;;;3.92;;
60582;SDS011;46415;47.536;19.066;2022-10-16T03:25:41;6.70;;;5.65;;
60582;SDS011;46415;47.536;19.066;2022-10-16T03:28:44;5.72;;;4.68;;
60582;SDS011;46415;47.536;19.066;2022-10-16T03:31:47;7.00;;;5.68;;
60582;SDS011;46415;47.536;19.066;2022-10-16T03:34:51;5.07;;;4.40;;
60582;SDS011;46415;47.536;19.066;2022-10-16T03:37:55;7.78;;;5.05;;
60582;SDS011;46415;47.536;19.066;2022-10-16T03:40:58;7.80;;;5.12;;
60582;SDS011;46415;47.536;19.066;2022-10-16T03:44:01;6.28;;;4.93;;
60582;SDS011;46415;47.536;19.066;2022-10-16T03:47:03;5.57;;;4.95;;
60582;SDS011;46415;47.536;19.066;2022-10-16T03:50:06;5.53;;;4.93;;
60582;SDS011;46415;47.536;19.066;2022-10-16T03:53:09;6.72;;;4.28;;
60582;SDS011;46415;47.536;19.066;2022-10-16T03:56:12;5.43;;;4.90;;
60582;SDS011;46415;47.536;19.066;2022-10-16T03:59:15;6.37;;;4.43;;
60582;SDS011;46415;47.536;19.066;2022-10-16T04:02:18;5.07;;;4.45;;
60582;SDS011;46415;47.536;19.066;2022-10-16T04:05:20;5.87;;;4.78;;
60582;SDS011;46415;47.536;19.066;2022-10-16T04:08:23;4.62;;;3.80;;
60582;SDS011;46415;47.536;19.066;2022-10-16T04:11:26;5.72;;;4.47;;
60582;SDS011;46415;47.536;19.066;2022-10-16T04:14:28;3.60;;;3.03;;
60582;SDS011;46415;47.536;19.066;2022-10-16T04:17:31;4.72;;;3.72;;
60582;SDS011;46415;47.536;19.066;2022-10-16T04:20:33;5.60;;;4.90;;
60582;SDS011;46415;47.536;19.066;2022-10-16T04:23:36;6.22;;;4.28;;
60582;SDS011;46415;47.536;19.066;2022-10-16T04:26:39;4.10;;;3.70;;
60582;SDS011;46415;47.536;19.066;2022-10-16T04:29:42;6.95;;;4.65;;
60582;SDS011;46415;47.536;19.066;2022-10-16T04:32:47;5.47;;;4.25;;
60582;SDS011;46415;47.536;19.066;2022-10-16T04:35:57;5.80;;;4.53;;
60582;SDS011;46415;47.536;19.066;2022-10-16T04:39:00;4.70;;;4.22;;
60582;SDS011;46415;47.536;19.066;2022-10-16T04:42:03;5.10;;;4.07;;
60582;SDS011;46415;47.536;19.066;2022-10-16T04:45:06;5.97;;;4.53;;
60582;SDS011;46415;47.536;19.066;2022-10-16T04:48:16;4.95;;;4.00;;
60582;SDS011;46415;47.536;19.066;2022-10-16T04:51:18;4.97;;;4.03;;
60582;SDS011;46415;47.536;19.066;2022-10-16T04:54:21;4.85;;;4.18;;
60582;SDS011;46415;47.536;19.066;2022-10-16T04:57:24;6.40;;;3.90;;
60582;SDS011;46415;47.536;19.066;2022-10-16T05:00:27;5.70;;;5.12;;
60582;SDS011;46415;47.536;19.066;2022-10-16T05:03:29;5.00;;;3.58;;
60582;SDS011;46415;47.536;19.066;2022-10-16T05:06:32;3.78;;;3.47;;
60582;SDS011;46415;47.536;19.066;2022-10-16T05:09:34;6.35;;;4.00;;
60582;SDS011;46415;47.536;19.066;2022-10-16T05:12:37;7.37;;;4.20;;
60582;SDS011;46415;47.536;19.066;2022-10-16T05:15:40;4.97;;;4.35;;
60582;SDS011;46415;47.536;19.066;2022-10-16T05:18:42;7.47;;;4.62;;
60582;SDS011;46415;47.536;19.066;2022-10-16T05:21:45;5.90;;;4.72;;
60582;SDS011;46415;47.536;19.066;2022-10-16T05:24:48;6.82;;;4.90;;
60582;SDS011;46415;47.536;19.066;2022-10-16T05:27:50;5.37;;;4.12;;
60582;SDS011;46415;47.536;19.066;2022-10-16T05:30:53;5.72;;;4.37;;
60582;SDS011;46415;47.536;19.066;2022-10-16T05:33:59;6.97;;;5.00;;
60582;SDS011;46415;47.536;19.066;2022-10-16T05:37:03;7.12;;;4.45;;
60582;SDS011;46415;47.536;19.066;2022-10-16T05:40:06;5.12;;;4.62;;
60582;SDS011;46415;47.536;19.066;2022-10-16T05:43:09;6.25;;;5.22;;
60582;SDS011;46415;47.536;19.066;2022-10-16T05:46:11;5.25;;;3.95;;
60582;SDS011;46415;47.536;19.066;2022-10-16T05:49:14;6.40;;;4.82;;
60582;SDS011;46415;47.536;19.066;2022-10-16T05:52:17;6.18;;;5.28;;
60582;SDS011;46415;47.536;19.066;2022-10-16T05:55:20;8.27;;;4.50;;
60582;SDS011;46415;47.536;19.066;2022-10-16T05:58:22;6.37;;;5.00;;
60582;SDS011;46415;47.536;19.066;2022-10-16T06:01:26;9.52;;;6.05;;
60582;SDS011;46415;47.536;19.066;2022-10-16T06:04:29;3.95;;;3.65;;
60582;SDS011;46415;47.536;19.066;2022-10-16T06:07:33;7.20;;;6.00;;
60582;SDS011;46415;47.536;19.066;2022-10-16T06:10:38;19.95;;;4.80;;
60582;SDS011;46415;47.536;19.066;2022-10-16T06:13:40;8.02;;;6.10;;
60582;SDS011;46415;47.536;19.066;2022-10-16T06:16:48;6.72;;;4.55;;
60582;SDS011;46415;47.536;19.066;2022-10-16T06:19:50;6.45;;;4.12;;
60582;SDS011;46415;47.536;19.066;2022-10-16T06:22:53;6.65;;;5.32;;
60582;SDS011;46415;47.536;19.066;2022-10-16T06:26:03;7.55;;;5.97;;
60582;SDS011;46415;47.536;19.066;2022-10-16T06:29:13;7.03;;;6.15;;
60582;SDS011;46415;47.536;19.066;2022-10-16T06:32:16;9.65;;;6.35;;
60582;SDS011;46415;47.536;19.066;2022-10-16T06:35:19;5.28;;;4.15;;
60582;SDS011;46415;47.536;19.066;2022-10-16T06:38:21;7.70;;;6.32;;
60582;SDS011;46415;47.536;19.066;2022-10-16T06:41:31;7.85;;;5.95;;
60582;SDS011;46415;47.536;19.066;2022-10-16T06:44:36;7.43;;;6.00;;
60582;SDS011;46415;47.536;19.066;2022-10-16T06:47:39;7.10;;;5.12;;
60582;SDS011;46415;47.536;19.066;2022-10-16T06:50:41;7.68;;;5.87;;
60582;SDS011;46415;47.536;19.066;2022-10-16T06:53:45;7.18;;;5.82;;
60582;SDS011;46415;47.536;19.066;2022-10-16T06:57:03;6.87;;;6.10;;
60582;SDS011;46415;47.536;19.066;2022-10-16T07:00:06;6.75;;;6.03;;
60582;SDS011;46415;47.536;19.066;2022-10-16T07:03:09;7.32;;;5.25;;
60582;SDS011;46415;47.536;19.066;2022-10-16T07:06:13;7.40;;;6.53;;
60582;SDS011;46415;47.536;19.066;2022-10-16T07:09:18;7.87;;;6.45;;
60582;SDS011;46415;47.536;19.066;2022-10-16T07:12:20;7.75;;;5.70;;
60582;SDS011;46415;47.536;19.066;2022-10-16T07:15:24;7.05;;;5.70;;
60582;SDS011;46415;47.536;19.066;2022-10-16T07:18:27;7.50;;;5.32;;
60582;SDS011;46415;47.536;19.066;2022-10-16T07:21:32;9.93;;;6.22;;
60582;SDS011;46415;47.536;19.066;2022-10-16T07:24:39;7.80;;;6.30;;
60582;SDS011;46415;47.536;19.066;2022-10-16T07:27:42;7.28;;;6.25;;
60582;SDS011;46415;47.536;19.066;2022-10-16T07:30:44;6.82;;;6.00;;
60582;SDS011;46415;47.536;19.066;2022-10-16T07:33:47;8.57;;;6.50;;
60582;SDS011;46415;47.536;19.066;2022-10-16T07:36:50;6.32;;;5.72;;
60582;SDS011;46415;47.536;19.066;2022-10-16T07:39:53;7.20;;;6.20;;
60582;SDS011;46415;47.536;19.066;2022-10-16T07:42:56;6.95;;;6.25;;
60582;SDS011;46415;47.536;19.066;2022-10-16T07:45:58;8.05;;;5.72;;
60582;SDS011;46415;47.536;19.066;2022-10-16T07:49:06;8.30;;;6.20;;
60582;SDS011;46415;47.536;19.066;2022-10-16T07:52:10;7.28;;;6.47;;
60582;SDS011;46415;47.536;19.066;2022-10-16T07:55:13;9.68;;;6.72;;
60582;SDS011;46415;47.536;19.066;2022-10-16T07:58:16;6.78;;;6.07;;
60582;SDS011;46415;47.536;19.066;2022-10-16T08:01:19;7.45;;;6.43;;
60582;SDS011;46415;47.536;19.066;2022-10-16T08:04:22;8.43;;;6.45;;
60582;SDS011;46415;47.536;19.066;2022-10-16T08:07:24;8.90;;;6.60;;
60582;SDS011;46415;47.536;19.066;2022-10-16T08:10:28;6.95;;;5.87;;
60582;SDS011;46415;47.536;19.066;2022-10-16T08:13:31;7.37;;;6.20;;
60582;SDS011;46415;47.536;19.066;2022-10-16T08:16:34;8.00;;;5.85;;
60582;SDS011;46415;47.536;19.066;2022-10-16T08:19:36;7.15;;;5.87;;
60582;SDS011;46415;47.536;19.066;2022-10-16T08:22:39;9.25;;;6.25;;
60582;SDS011;46415;47.536;19.066;2022-10-16T08:25:41;7.62;;;6.05;;
60582;SDS011;46415;47.536;19.066;2022-10-16T08:28:45;7.12;;;6.40;;
60582;SDS011;46415;47.536;19.066;2022-10-16T08:31:49;7.80;;;6.85;;
60582;SDS011;46415;47.536;19.066;2022-10-16T08:34:52;7.22;;;6.03;;
60582;SDS011;46415;47.536;19.066;2022-10-16T08:37:54;7.70;;;6.15;;
60582;SDS011;46415;47.536;19.066;2022-10-16T08:41:01;7.37;;;6.60;;
60582;SDS011;46415;47.536;19.066;2022-10-16T08:51:08;6.90;;;6.18;;
60582;SDS011;46415;47.536;19.066;2022-10-16T08:54:18;8.05;;;6.28;;
60582;SDS011;46415;47.536;19.066;2022-10-16T08:57:30;7.22;;;5.93;;
60582;SDS011;46415;47.536;19.066;2022-10-16T09:00:35;7.50;;;5.87;;
60582;SDS011;46415;47.536;19.066;2022-10-16T09:03:44;7.85;;;6.43;;
60582;SDS011;46415;47.536;19.066;2022-10-16T09:17:49;6.40;;;5.55;;
60582;SDS011;46415;47.536;19.066;2022-10-16T09:27:28;7.35;;;6.15;;
60582;SDS011;46415;47.536;19.066;2022-10-16T09:30:31;7.70;;;5.82;;
60582;SDS011;46415;47.536;19.066;2022-10-16T09:33:35;7.40;;;6.00;;
60582;SDS011;46415;47.536;19.066;2022-10-16T09:36:41;7.80;;;5.90;;
60582;SDS011;46415;47.536;19.066;2022-10-16T09:39:53;6.47;;;5.65;;
60582;SDS011;46415;47.536;19.066;2022-10-16T09:43:20;6.87;;;6.18;;
60582;SDS011;46415;47.536;19.066;2022-10-16T09:46:27;7.45;;;5.62;;
60582;SDS011;46415;47.536;19.066;2022-10-16T09:49:32;8.63;;;6.37;;
60582;SDS011;46415;47.536;19.066;2022-10-16T09:52:35;7.10;;;5.70;;
60582;SDS011;46415;47.536;19.066;2022-10-16T09:55:47;8.20;;;5.90;;
60582;SDS011;46415;47.536;19.066;2022-10-16T09:58:52;8.13;;;6.35;;
60582;SDS011;46415;47.536;19.066;2022-10-16T10:01:56;7.10;;;5.93;;
60582;SDS011;46415;47.536;19.066;2022-10-16T10:05:06;6.75;;;6.05;;
60582;SDS011;46415;47.536;19.066;2022-10-16T10:08:21;6.82;;;6.05;;
60582;SDS011;46415;47.536;19.066;2022-10-16T10:14:48;7.07;;;5.65;;
60582;SDS011;46415;47.536;19.066;2022-10-16T10:17:54;7.45;;;5.72;;
60582;SDS011;46415;47.536;19.066;2022-10-16T10:20:59;6.22;;;5.62;;
60582;SDS011;46415;47.536;19.066;2022-10-16T10:24:04;6.10;;;5.50;;
60582;SDS011;46415;47.536;19.066;2022-10-16T10:27:09;6.75;;;5.28;;
60582;SDS011;46415;47.536;19.066;2022-10-16T10:30:20;6.87;;;5.50;;
60582;SDS011;46415;47.536;19.066;2022-10-16T10:36:55;5.85;;;5.12;;
60582;SDS011;46415;47.536;19.066;2022-10-16T10:40:15;6.75;;;6.05;;
60582;SDS011;46415;47.536;19.066;2022-10-16T10:46:51;6.05;;;5.32;;
60582;SDS011;46415;47.536;19.066;2022-10-16T11:10:25;5.40;;;4.70;;
60582;SDS011;46415;47.536;19.066;2022-10-16T11:13:38;5.85;;;5.10;;
60582;SDS011;46415;47.536;19.066;2022-10-16T11:16:50;8.07;;;4.93;;
60582;SDS011;46415;47.536;19.066;2022-10-16T11:26:55;5.62;;;4.50;;
60582;SDS011;46415;47.536;19.066;2022-10-16T11:30:04;4.90;;;4.23;;
60582;SDS011;46415;47.536;19.066;2022-10-16T11:36:23;5.37;;;4.43;;
60582;SDS011;46415;47.536;19.066;2022-10-16T11:39:30;4.65;;;4.22;;
60582;SDS011;46415;47.536;19.066;2022-10-16T11:42:37;6.25;;;4.78;;
60582;SDS011;46415;47.536;19.066;2022-10-16T11:45:45;5.75;;;4.45;;
60582;SDS011;46415;47.536;19.066;2022-10-16T11:48:54;5.05;;;4.55;;
60582;SDS011;46415;47.536;19.066;2022-10-16T11:52:19;4.53;;;4.12;;
60582;SDS011;46415;47.536;19.066;2022-10-16T11:55:29;4.30;;;3.90;;
60582;SDS011;46415;47.536;19.066;2022-10-16T12:09:04;4.40;;;4.00;;
60582;SDS011;46415;47.536;19.066;2022-10-16T12:15:48;5.22;;;4.25;;
60582;SDS011;46415;47.536;19.066;2022-10-16T12:19:14;4.90;;;4.15;;
60582;SDS011;46415;47.536;19.066;2022-10-16T12:22:18;4.82;;;3.80;;
60582;SDS011;46415;47.536;19.066;2022-10-16T12:25:37;4.93;;;3.72;;
60582;SDS011;46415;47.536;19.066;2022-10-16T12:28:48;4.57;;;4.18;;
60582;SDS011;46415;47.536;19.066;2022-10-16T12:31:54;4.87;;;3.70;;
60582;SDS011;46415;47.536;19.066;2022-10-16T12:35:00;3.75;;;3.45;;
60582;SDS011;46415;47.536;19.066;2022-10-16T12:38:14;8.40;;;4.15;;
60582;SDS011;46415;47.536;19.066;2022-10-16T12:41:38;4.12;;;3.55;;
60582;SDS011;46415;47.536;19.066;2022-10-16T12:44:42;4.55;;;3.70;;
60582;SDS011;46415;47.536;19.066;2022-10-16T12:47:48;4.47;;;4.07;;
60582;SDS011;46415;47.536;19.066;2022-10-16T12:50:53;4.57;;;3.80;;
60582;SDS011;46415;47.536;19.066;2022-10-16T12:57:26;5.62;;;3.80;;
60582;SDS011;46415;47.536;19.066;2022-10-16T13:28:15;3.83;;;3.53;;
60582;SDS011;46415;47.536;19.066;2022-10-16T13:31:22;4.15;;;3.78;;
60582;SDS011;46415;47.536;19.066;2022-10-16T13:34:27;3.85;;;3.30;;
60582;SDS011;46415;47.536;19.066;2022-10-16T13:37:30;3.70;;;3.30;;
60582;SDS011;46415;47.536;19.066;2022-10-16T13:40:33;4.18;;;3.72;;
60582;SDS011;46415;47.536;19.066;2022-10-16T13:43:40;4.90;;;3.30;;
60582;SDS011;46415;47.536;19.066;2022-10-16T13:46:47;5.03;;;3.60;;
60582;SDS011;46415;47.536;19.066;2022-10-16T13:50:11;4.07;;;3.72;;
60582;SDS011;46415;47.536;19.066;2022-10-16T13:53:15;3.50;;;3.20;;
60582;SDS011;46415;47.536;19.066;2022-10-16T13:56:20;3.72;;;3.42;;
60582;SDS011;46415;47.536;19.066;2022-10-16T13:59:42;3.65;;;3.20;;
60582;SDS011;46415;47.536;19.066;2022-10-16T14:02:45;3.62;;;3.15;;
60582;SDS011;46415;47.536;19.066;2022-10-16T14:05:55;3.22;;;2.87;;
60582;SDS011;46415;47.536;19.066;2022-10-16T14:12:08;3.67;;;3.05;;
60582;SDS011;46415;47.536;19.066;2022-10-16T14:15:17;3.85;;;3.35;;
60582;SDS011;46415;47.536;19.066;2022-10-16T14:18:22;3.67;;;3.33;;
60582;SDS011;46415;47.536;19.066;2022-10-16T14:21:27;3.70;;;3.22;;
60582;SDS011;46415;47.536;19.066;2022-10-16T14:24:34;3.75;;;3.40;;
60582;SDS011;46415;47.536;19.066;2022-10-16T14:27:37;3.45;;;3.00;;
60582;SDS011;46415;47.536;19.066;2022-10-16T14:30:49;3.50;;;3.20;;
60582;SDS011;46415;47.536;19.066;2022-10-16T14:33:53;3.85;;;3.05;;
60582;SDS011;46415;47.536;19.066;2022-10-16T14:37:36;3.47;;;3.15;;
60582;SDS011;46415;47.536;19.066;2022-10-16T14:40:33;3.67;;;3.30;;
60582;SDS011;46415;47.536;19.066;2022-10-16T14:43:41;3.67;;;3.15;;
60582;SDS011;46415;47.536;19.066;2022-10-16T14:46:52;3.75;;;3.30;;
60582;SDS011;46415;47.536;19.066;2022-10-16T14:49:55;3.97;;;3.37;;
60582;SDS011;46415;47.536;19.066;2022-10-16T14:53:00;3.75;;;3.45;;
60582;SDS011;46415;47.536;19.066;2022-10-16T14:56:16;4.93;;;3.75;;
60582;SDS011;46415;47.536;19.066;2022-10-16T14:59:29;3.90;;;3.50;;
60582;SDS011;46415;47.536;19.066;2022-10-16T15:02:36;3.47;;;3.12;;
60582;SDS011;46415;47.536;19.066;2022-10-16T15:05:38;4.35;;;3.12;;
60582;SDS011;46415;47.536;19.066;2022-10-16T15:08:41;3.83;;;3.20;;
60582;SDS011;46415;47.536;19.066;2022-10-16T15:11:44;3.92;;;3.40;;
60582;SDS011;46415;47.536;19.066;2022-10-16T15:14:48;3.17;;;2.87;;
60582;SDS011;46415;47.536;19.066;2022-10-16T15:17:51;3.92;;;3.35;;
60582;SDS011;46415;47.536;19.066;2022-10-16T15:21:02;3.70;;;3.40;;
60582;SDS011;46415;47.536;19.066;2022-10-16T15:24:07;5.28;;;3.50;;
60582;SDS011;46415;47.536;19.066;2022-10-16T15:27:19;3.85;;;3.55;;
60582;SDS011;46415;47.536;19.066;2022-10-16T15:30:21;3.78;;;3.37;;
60582;SDS011;46415;47.536;19.066;2022-10-16T15:33:25;5.12;;;3.40;;
60582;SDS011;46415;47.536;19.066;2022-10-16T15:36:34;3.50;;;3.20;;
60582;SDS011;46415;47.536;19.066;2022-10-16T15:39:39;3.85;;;3.45;;
60582;SDS011;46415;47.536;19.066;2022-10-16T15:42:42;3.72;;;3.40;;
60582;SDS011;46415;47.536;19.066;2022-10-16T15:49:18;4.85;;;3.60;;
60582;SDS011;46415;47.536;19.066;2022-10-16T15:52:21;4.43;;;3.78;;
60582;SDS011;46415;47.536;19.066;2022-10-16T15:55:24;4.47;;;4.05;;
60582;SDS011;46415;47.536;19.066;2022-10-16T15:58:27;4.78;;;3.60;;
60582;SDS011;46415;47.536;19.066;2022-10-16T16:01:33;4.37;;;3.30;;
60582;SDS011;46415;47.536;19.066;2022-10-16T16:04:37;4.50;;;3.60;;
60582;SDS011;46415;47.536;19.066;2022-10-16T16:07:45;4.05;;;3.60;;
60582;SDS011;46415;47.536;19.066;2022-10-16T16:11:01;4.65;;;3.58;;
60582;SDS011;46415;47.536;19.066;2022-10-16T16:14:14;4.90;;;3.90;;
60582;SDS011;46415;47.536;19.066;2022-10-16T16:17:17;4.45;;;3.62;;
60582;SDS011;46415;47.536;19.066;2022-10-16T16:20:20;5.10;;;3.33;;
60582;SDS011;46415;47.536;19.066;2022-10-16T16:23:22;4.68;;;3.92;;
60582;SDS011;46415;47.536;19.066;2022-10-16T16:26:28;4.37;;;3.97;;
60582;SDS011;46415;47.536;19.066;2022-10-16T16:29:38;4.97;;;3.60;;
60582;SDS011;46415;47.536;19.066;2022-10-16T16:32:40;5.20;;;4.10;;
60582;SDS011;46415;47.536;19.066;2022-10-16T16:35:43;4.18;;;3.78;;
60582;SDS011;46415;47.536;19.066;2022-10-16T16:38:46;5.25;;;4.20;;
60582;SDS011;46415;47.536;19.066;2022-10-16T16:41:49;4.82;;;3.75;;
60582;SDS011;46415;47.536;19.066;2022-10-16T16:44:51;6.90;;;4.35;;
60582;SDS011;46415;47.536;19.066;2022-10-16T16:47:55;5.25;;;4.18;;
60582;SDS011;46415;47.536;19.066;2022-10-16T16:51:02;5.50;;;3.97;;
60582;SDS011;46415;47.536;19.066;2022-10-16T16:54:10;6.35;;;4.15;;
60582;SDS011;46415;47.536;19.066;2022-10-16T16:57:14;5.35;;;4.60;;
60582;SDS011;46415;47.536;19.066;2022-10-16T17:00:17;6.78;;;4.53;;
60582;SDS011;46415;47.536;19.066;2022-10-16T17:03:19;6.93;;;4.30;;
60582;SDS011;46415;47.536;19.066;2022-10-16T17:06:23;5.20;;;4.40;;
60582;SDS011;46415;47.536;19.066;2022-10-16T17:09:27;4.93;;;4.35;;
60582;SDS011;46415;47.536;19.066;2022-10-16T17:12:30;5.55;;;4.62;;
60582;SDS011;46415;47.536;19.066;2022-10-16T17:15:32;5.20;;;4.55;;
60582;SDS011;46415;47.536;19.066;2022-10-16T17:18:35;7.70;;;5.30;;
60582;SDS011;46415;47.536;19.066;2022-10-16T17:21:38;5.10;;;4.60;;
60582;SDS011;46415;47.536;19.066;2022-10-16T17:24:41;6.07;;;4.90;;
60582;SDS011;46415;47.536;19.066;2022-10-16T17:27:44;7.47;;;4.85;;
60582;SDS011;46415;47.536;19.066;2022-10-16T17:30:47;5.78;;;5.03;;
60582;SDS011;46415;47.536;19.066;2022-10-16T17:33:49;7.37;;;4.80;;
60582;SDS011;46415;47.536;19.066;2022-10-16T17:36:55;5.37;;;4.78;;
60582;SDS011;46415;47.536;19.066;2022-10-16T17:39:58;5.82;;;4.50;;
60582;SDS011;46415;47.536;19.066;2022-10-16T17:43:01;5.10;;;4.25;;
60582;SDS011;46415;47.536;19.066;2022-10-16T17:46:03;6.07;;;4.62;;
60582;SDS011;46415;47.536;19.066;2022-10-16T17:49:08;5.93;;;4.95;;
60582;SDS011;46415;47.536;19.066;2022-10-16T17:52:10;5.80;;;5.03;;
60582;SDS011;46415;47.536;19.066;2022-10-16T17:55:13;8.43;;;5.40;;
60582;SDS011;46415;47.536;19.066;2022-10-16T17:58:16;6.28;;;5.35;;
60582;SDS011;46415;47.536;19.066;2022-10-16T18:01:20;6.72;;;5.18;;
60582;SDS011;46415;47.536;19.066;2022-10-16T18:04:25;7.70;;;5.10;;
60582;SDS011;46415;47.536;19.066;2022-10-16T18:07:28;10.35;;;5.30;;
60582;SDS011;46415;47.536;19.066;2022-10-16T18:10:31;7.22;;;4.97;;
60582;SDS011;46415;47.536;19.066;2022-10-16T18:13:33;7.80;;;5.47;;
60582;SDS011;46415;47.536;19.066;2022-10-16T18:16:36;7.70;;;5.85;;
60582;SDS011;46415;47.536;19.066;2022-10-16T18:19:40;6.78;;;5.18;;
60582;SDS011;46415;47.536;19.066;2022-10-16T18:22:43;7.05;;;4.82;;
60582;SDS011;46415;47.536;19.066;2022-10-16T18:25:49;5.72;;;4.97;;
60582;SDS011;46415;47.536;19.066;2022-10-16T18:28:53;7.37;;;5.62;;
60582;SDS011;46415;47.536;19.066;2022-10-16T18:31:57;8.23;;;5.43;;
60582;SDS011;46415;47.536;19.066;2022-10-16T18:35:00;7.03;;;6.12;;
60582;SDS011;46415;47.536;19.066;2022-10-16T18:38:02;8.73;;;6.40;;
60582;SDS011;46415;47.536;19.066;2022-10-16T18:41:05;9.30;;;6.68;;
60582;SDS011;46415;47.536;19.066;2022-10-16T18:44:08;11.40;;;7.75;;
60582;SDS011;46415;47.536;19.066;2022-10-16T18:47:12;12.90;;;8.75;;
60582;SDS011;46415;47.536;19.066;2022-10-16T18:50:15;11.23;;;8.23;;
60582;SDS011;46415;47.536;19.066;2022-10-16T18:53:18;12.43;;;7.22;;
60582;SDS011;46415;47.536;19.066;2022-10-16T18:56:21;11.98;;;8.60;;
60582;SDS011;46415;47.536;19.066;2022-10-16T18:59:25;11.73;;;9.10;;
60582;SDS011;46415;47.536;19.066;2022-10-16T19:02:28;14.68;;;10.73;;
60582;SDS011;46415;47.536;19.066;2022-10-16T19:05:32;13.27;;;8.05;;
60582;SDS011;46415;47.536;19.066;2022-10-16T19:08:35;15.65;;;11.18;;
60582;SDS011;46415;47.536;19.066;2022-10-16T19:11:40;13.23;;;10.00;;
60582;SDS011;46415;47.536;19.066;2022-10-16T19:14:43;15.80;;;10.07;;
60582;SDS011;46415;47.536;19.066;2022-10-16T19:17:46;13.02;;;9.07;;
60582;SDS011;46415;47.536;19.066;2022-10-16T19:20:48;11.30;;;8.25;;
60582;SDS011;46415;47.536;19.066;2022-10-16T19:23:52;12.15;;;8.50;;
60582;SDS011;46415;47.536;19.066;2022-10-16T19:26:55;14.32;;;10.15;;
60582;SDS011;46415;47.536;19.066;2022-10-16T19:29:59;14.93;;;10.73;;
60582;SDS011;46415;47.536;19.066;2022-10-16T19:33:02;12.07;;;8.73;;
60582;SDS011;46415;47.536;19.066;2022-10-16T19:36:15;12.57;;;8.82;;
60582;SDS011;46415;47.536;19.066;2022-10-16T19:39:19;10.40;;;7.72;;
60582;SDS011;46415;47.536;19.066;2022-10-16T19:42:22;13.02;;;10.02;;
60582;SDS011;46415;47.536;19.066;2022-10-16T19:45:25;15.43;;;8.98;;
60582;SDS011;46415;47.536;19.066;2022-10-16T19:48:28;14.68;;;9.00;;
60582;SDS011;46415;47.536;19.066;2022-10-16T19:51:30;15.15;;;10.13;;
60582;SDS011;46415;47.536;19.066;2022-10-16T19:54:33;12.82;;;7.90;;
60582;SDS011;46415;47.536;19.066;2022-10-16T19:57:37;12.98;;;7.22;;
60582;SDS011;46415;47.536;19.066;2022-10-16T20:00:40;20.83;;;8.65;;
60582;SDS011;46415;47.536;19.066;2022-10-16T20:03:44;11.02;;;8.77;;
60582;SDS011;46415;47.536;19.066;2022-10-16T20:06:48;14.43;;;8.52;;
60582;SDS011;46415;47.536;19.066;2022-10-16T20:09:51;14.13;;;10.15;;
60582;SDS011;46415;47.536;19.066;2022-10-16T20:12:53;14.40;;;10.50;;
60582;SDS011;46415;47.536;19.066;2022-10-16T20:15:56;11.45;;;7.80;;
60582;SDS011;46415;47.536;19.066;2022-10-16T20:18:59;11.23;;;9.45;;
60582;SDS011;46415;47.536;19.066;2022-10-16T20:22:02;9.68;;;7.62;;
60582;SDS011;46415;47.536;19.066;2022-10-16T20:25:05;11.88;;;9.05;;
60582;SDS011;46415;47.536;19.066;2022-10-16T20:28:13;10.27;;;7.45;;
60582;SDS011;46415;47.536;19.066;2022-10-16T20:31:22;13.15;;;8.77;;
60582;SDS011;46415;47.536;19.066;2022-10-16T20:34:26;16.65;;;11.27;;
60582;SDS011;46415;47.536;19.066;2022-10-16T20:37:29;14.25;;;8.32;;